< < Back
Terminal Aerodrome Forecast


Current Version              Previous Versions:   1  2  3  4  5  6  7  8  9  

Terminal Aerodrome Forecast

667
FTUS42 KFFC 241700
TAFPDK
TAF
KPDK 241740Z 2418/2518 11005KT P6SM SCT060
     FM250000 16006KT P6SM BKN060
     FM250900 20006KT P6SM BKN050
     FM251200 23009KT P6SM SCT025 BKN050
     FM251500 24010G18KT P6SM BKN025=



Latest METAR

623
SAUS70 KWBC 250100
MTRPDK
METAR KPDK 250053Z 14003KT 10SM CLR 21/09 A2991 RMK AO2 SLP120
T02110094


USA.gov is the U.S. government's official web portal to all federal, state and local government web resources and services.